Time;durP1;ratioP1;P1;durP2;ratioP2;P2;SDS_P1;SDS_P2;PMS_P1;PMS_P2;Temp;Humidity;BMP_temperature;BMP_pressure;BME280_temperature;BME280_humidity;BME280_pressure;Samples;Min_cycle;Max_cycle;Signal;HPM_P1;HPM_P2
2022/02/07 00:01:00;;;;;;;6.57;1.67;;;12.60;83.70;;;;;;5096642;28;20052;-75
2022/02/07 00:05:59;;;;;;;7.40;1.88;;;12.60;83.90;;;;;;5097779;28;20522;-74
2022/02/07 00:08:24;;;;;;;8.43;1.50;;;12.60;83.50;;;;;;5096371;28;20610;-74
2022/02/07 00:10:50;;;;;;;6.30;1.48;;;12.60;83.80;;;;;;5094278;28;20035;-74
2022/02/07 00:13:16;;;;;;;5.90;1.30;;;12.60;83.40;;;;;;5099919;28;20419;-75
2022/02/07 00:15:42;;;;;;;6.43;1.60;;;12.60;83.20;;;;;;5097165;28;20055;-75
2022/02/07 00:18:08;;;;;;;6.28;1.48;;;12.60;83.60;;;;;;5098149;28;20035;-75
2022/02/07 00:20:35;;;;;;;7.10;1.42;;;12.60;83.40;;;;;;5097245;28;20031;-73
2022/02/07 00:23:00;;;;;;;5.93;1.40;;;12.60;82.90;;;;;;5093976;28;20166;-73
2022/02/07 00:25:27;;;;;;;6.15;1.23;;;12.50;82.90;;;;;;5099242;28;20099;-73
2022/02/07 00:27:53;;;;;;;5.05;1.15;;;12.50;83.30;;;;;;5097968;28;20060;-73
2022/02/07 00:30:20;;;;;;;6.22;1.52;;;12.60;83.10;;;;;;5097485;28;20043;-73
2022/02/07 00:32:48;;;;;;;3.92;1.00;;;12.60;82.80;;;;;;5097851;28;20027;-73
2022/02/07 00:35:16;;;;;;;7.57;1.40;;;12.60;82.70;;;;;;5095551;28;20065;-74
2022/02/07 00:37:45;;;;;;;3.95;1.00;;;12.60;82.90;;;;;;5095194;28;20499;-74
2022/02/07 00:42:50;;;;;;;6.85;1.45;;;12.60;82.10;;;;;;5097261;28;20492;-74
2022/02/07 00:45:26;;;;;;;5.10;1.00;;;12.60;82.20;;;;;;5097136;28;20478;-74
2022/02/07 00:47:58;;;;;;;6.88;1.35;;;12.60;81.80;;;;;;5097518;28;20031;-73
2022/02/07 00:50:23;;;;;;;6.25;1.15;;;12.60;82.40;;;;;;5095777;28;20036;-74
2022/02/07 00:52:49;;;;;;;5.93;1.20;;;12.50;82.10;;;;;;5093524;28;20454;-74
2022/02/07 00:55:15;;;;;;;6.45;1.30;;;12.50;81.60;;;;;;5099189;28;20056;-74
2022/02/07 00:57:40;;;;;;;4.57;1.02;;;12.50;81.50;;;;;;5097011;28;20058;-74
2022/02/07 01:00:06;;;;;;;6.88;1.35;;;12.40;81.50;;;;;;5097047;28;20039;-74
2022/02/07 01:02:32;;;;;;;3.88;1.08;;;12.40;81.20;;;;;;5097244;28;20555;-74
2022/02/07 01:04:58;;;;;;;4.43;1.17;;;12.40;81.70;;;;;;5074473;28;20103;-74
2022/02/07 01:07:23;;;;;;;3.55;0.98;;;12.40;81.50;;;;;;5083661;28;20028;-74
2022/02/07 01:09:52;;;;;;;5.30;1.13;;;12.40;81.30;;;;;;5095226;28;20038;-74
2022/02/07 01:12:28;;;;;;;6.32;1.10;;;12.40;81.20;;;;;;5096838;28;20048;-73
2022/02/07 01:15:03;;;;;;;5.47;1.10;;;12.40;81.30;;;;;;5097015;28;20040;-73
2022/02/07 01:50:06;;;;;;;4.13;1.08;;;12.30;80.40;;;;;;5094576;28;20469;-73
2022/02/07 01:55:08;;;;;;;7.45;1.33;;;12.20;79.80;;;;;;5096813;28;20426;-73
2022/02/07 01:57:33;;;;;;;7.07;1.20;;;12.20;80.40;;;;;;5077963;28;20043;-73
2022/02/07 01:59:59;;;;;;;5.82;1.08;;;12.20;80.50;;;;;;5078041;28;20032;-74
2022/02/07 02:02:25;;;;;;;6.32;1.33;;;12.20;80.50;;;;;;5095567;28;20031;-74
2022/02/07 02:04:51;;;;;;;6.90;1.38;;;12.10;80.10;;;;;;5092149;28;20495;-74
2022/02/07 02:07:16;;;;;;;7.95;1.48;;;12.20;80.70;;;;;;5098236;28;20061;-74
2022/02/07 02:09:42;;;;;;;5.53;1.05;;;12.20;80.80;;;;;;5095495;28;20530;-73
2022/02/07 02:12:09;;;;;;;5.53;1.10;;;12.30;80.80;;;;;;5096145;28;20144;-73
2022/02/07 02:20:39;;;;;;;7.72;1.27;;;12.30;79.90;;;;;;5094423;28;20028;-73
2022/02/07 02:38:50;;;;;;;8.48;1.25;;;12.40;79.90;;;;;;5094738;28;20395;-74
2022/02/07 02:46:34;;;;;;;5.35;1.27;;;12.50;80.00;;;;;;5095019;28;20055;-73
2022/02/07 02:49:02;;;;;;;6.47;1.33;;;12.50;79.90;;;;;;5096389;28;20024;-73
2022/02/07 02:51:28;;;;;;;7.10;1.27;;;12.50;79.60;;;;;;5094008;28;20511;-73
2022/02/07 02:53:54;;;;;;;6.78;1.45;;;12.50;79.40;;;;;;5094929;28;20020;-74
2022/02/07 02:56:20;;;;;;;6.28;1.30;;;12.50;79.30;;;;;;5093981;28;20038;-73
2022/02/07 02:58:46;;;;;;;7.35;1.30;;;12.40;79.50;;;;;;5091979;28;20020;-73
2022/02/07 03:01:11;;;;;;;5.82;1.30;;;12.40;78.60;;;;;;5079103;28;20084;-73
2022/02/07 03:03:37;;;;;;;6.00;1.20;;;12.30;78.80;;;;;;5095143;28;20059;-73
2022/02/07 03:06:03;;;;;;;4.55;1.10;;;12.30;78.90;;;;;;5095043;28;20032;-73
2022/02/07 03:08:28;;;;;;;7.53;1.35;;;12.30;78.70;;;;;;5094601;28;20024;-73
2022/02/07 03:11:05;;;;;;;4.90;1.33;;;12.30;78.70;;;;;;5090696;28;20036;-73
2022/02/07 03:13:44;;;;;;;8.10;1.15;;;12.30;78.70;;;;;;5104439;28;20067;-73
2022/02/07 03:18:55;;;;;;;4.82;0.98;;;12.30;78.00;;;;;;5094144;28;20077;-75
2022/02/07 03:21:20;;;;;;;5.72;1.17;;;12.30;77.60;;;;;;5075738;28;20036;-74
2022/02/07 03:23:46;;;;;;;7.55;1.27;;;12.30;77.70;;;;;;5094327;28;20023;-73
2022/02/07 03:26:14;;;;;;;6.97;1.90;;;12.30;78.10;;;;;;5092350;28;20024;-73
2022/02/07 03:28:39;;;;;;;7.03;1.25;;;12.20;77.90;;;;;;5074803;28;20096;-73
2022/02/07 03:31:07;;;;;;;3.75;1.20;;;12.20;77.80;;;;;;5078532;28;20056;-73
2022/02/07 03:33:32;;;;;;;5.57;1.13;;;12.20;77.70;;;;;;5094905;28;20031;-74
2022/02/07 03:35:58;;;;;;;4.22;1.20;;;12.20;78.10;;;;;;5094803;28;20032;-73
2022/02/07 03:38:24;;;;;;;6.05;1.20;;;12.20;77.60;;;;;;5093625;28;20028;-74
2022/02/07 03:40:49;;;;;;;7.35;1.20;;;12.20;76.90;;;;;;5072977;28;20048;-73
2022/02/07 03:43:15;;;;;;;6.75;1.05;;;12.20;77.00;;;;;;5096661;28;20039;-74
2022/02/07 03:45:41;;;;;;;8.32;1.30;;;12.20;77.10;;;;;;5094662;28;20035;-74
2022/02/07 03:48:06;;;;;;;4.55;1.00;;;12.20;77.00;;;;;;5094633;28;20476;-75
2022/02/07 03:50:32;;;;;;;5.15;1.17;;;12.30;76.90;;;;;;5094688;28;20531;-75
2022/02/07 03:52:57;;;;;;;5.40;1.23;;;12.30;77.20;;;;;;5071762;28;20021;-75
2022/02/07 03:55:23;;;;;;;4.60;0.82;;;12.30;77.10;;;;;;5078590;28;20077;-75
2022/02/07 03:57:49;;;;;;;5.55;1.10;;;12.30;76.50;;;;;;5094493;28;20267;-75
2022/02/07 04:00:15;;;;;;;5.25;1.13;;;12.30;76.30;;;;;;5094629;28;20416;-75
2022/02/07 04:02:43;;;;;;;2.50;0.80;;;12.30;76.80;;;;;;5094424;28;20073;-73
2022/02/07 04:07:40;;;;;;;6.13;0.98;;;12.40;76.30;;;;;;5092114;28;20056;-73
2022/02/07 04:10:06;;;;;;;4.80;1.17;;;12.40;76.40;;;;;;5096067;28;20055;-73
2022/02/07 04:12:33;;;;;;;7.03;1.10;;;12.30;76.30;;;;;;5094392;28;20024;-73
2022/02/07 04:14:59;;;;;;;4.55;1.00;;;12.30;76.10;;;;;;5094230;28;20052;-73
2022/02/07 04:17:27;;;;;;;6.97;1.30;;;12.30;76.50;;;;;;5093830;28;20027;-76
2022/02/07 04:19:58;;;;;;;5.47;1.25;;;12.40;76.30;;;;;;5090019;28;20067;-75
2022/02/07 04:22:28;;;;;;;7.45;1.30;;;12.40;76.10;;;;;;5103426;28;20108;-75
2022/02/07 04:24:53;;;;;;;4.82;1.15;;;12.40;76.30;;;;;;5096057;28;20122;-75
2022/02/07 04:27:19;;;;;;;4.88;1.05;;;12.40;76.30;;;;;;5098065;28;20052;-75
2022/02/07 04:29:44;;;;;;;6.38;1.17;;;12.30;76.00;;;;;;5098012;28;20024;-75
2022/02/07 04:32:11;;;;;;;5.68;1.20;;;12.30;76.20;;;;;;5077076;28;20028;-75
2022/02/07 04:34:38;;;;;;;5.75;1.10;;;12.30;76.00;;;;;;5078575;28;20035;-75
2022/02/07 04:37:04;;;;;;;4.72;1.13;;;12.20;76.00;;;;;;5099381;28;20028;-73
2022/02/07 04:39:30;;;;;;;4.32;0.95;;;12.20;76.20;;;;;;5097617;28;20146;-73
2022/02/07 04:41:57;;;;;;;5.18;0.95;;;12.20;76.30;;;;;;5097658;28;20095;-74
2022/02/07 04:44:32;;;;;;;6.20;1.13;;;12.20;76.20;;;;;;5078341;28;20050;-74
2022/02/07 04:47:13;;;;;;;9.88;1.33;;;12.30;76.30;;;;;;5077506;28;20025;-74
2022/02/07 04:50:00;;;;;;;5.93;1.33;;;12.20;76.50;;;;;;5095918;28;20024;-74
2022/02/07 04:52:55;;;;;;;5.93;1.38;;;12.30;76.30;;;;;;5099275;28;20385;-74
2022/02/07 04:57:56;;;;;;;8.30;1.70;;;12.30;76.50;;;;;;5097340;28;20484;-73
2022/02/07 05:13:39;;;;;;;3.97;1.10;;;12.30;76.60;;;;;;5099323;28;20101;-75
2022/02/07 05:16:08;;;;;;;6.78;1.23;;;12.30;76.70;;;;;;5098764;28;20024;-73
2022/02/07 05:18:34;;;;;;;7.53;1.30;;;12.30;76.30;;;;;;5096833;28;20107;-73
2022/02/07 05:21:00;;;;;;;6.35;1.10;;;12.30;76.30;;;;;;5096784;28;20567;-73
2022/02/07 05:23:26;;;;;;;4.72;0.88;;;12.20;76.40;;;;;;5096399;28;20483;-73
2022/02/07 05:25:51;;;;;;;7.68;1.30;;;12.20;76.50;;;;;;5092174;28;20549;-73
2022/02/07 05:28:17;;;;;;;5.63;1.20;;;12.20;76.80;;;;;;5098805;28;20111;-74
2022/02/07 05:30:43;;;;;;;7.25;1.50;;;12.20;76.80;;;;;;5096919;28;20397;-74
2022/02/07 05:33:08;;;;;;;8.68;1.60;;;12.20;76.50;;;;;;5096372;28;20050;-74
2022/02/07 05:35:34;;;;;;;6.40;1.00;;;12.20;76.50;;;;;;5096374;28;20076;-74
2022/02/07 05:38:01;;;;;;;4.65;1.38;;;12.20;76.60;;;;;;5092648;28;20483;-74
2022/02/07 05:41:09;;;;;;;7.50;1.42;;;12.20;76.70;;;;;;5098412;28;20032;-74
2022/02/07 05:43:16;;;;;;;5.03;1.33;;;12.10;76.90;;;;;;5093311;28;20036;-74
2022/02/07 05:45:41;;;;;;;5.32;1.08;;;12.20;77.30;;;;;;5098167;28;20509;-74
2022/02/07 05:48:07;;;;;;;5.28;1.15;;;12.20;77.10;;;;;;5096356;28;20452;-74
2022/02/07 05:50:33;;;;;;;5.88;1.30;;;12.20;77.10;;;;;;5096592;28;20057;-74
2022/02/07 05:52:59;;;;;;;8.32;1.45;;;12.20;77.00;;;;;;5092129;28;20062;-74
2022/02/07 05:55:26;;;;;;;8.75;1.60;;;12.20;77.20;;;;;;5098255;28;20495;-74
2022/02/07 05:57:52;;;;;;;5.07;1.05;;;12.10;77.40;;;;;;5096299;28;20062;-75
2022/02/07 06:00:17;;;;;;;6.18;1.70;;;12.10;77.30;;;;;;5096118;28;20068;-75
2022/02/07 06:02:44;;;;;;;6.85;1.30;;;12.20;77.70;;;;;;5096132;28;20110;-75
2022/02/07 06:05:10;;;;;;;8.00;1.48;;;12.20;77.70;;;;;;5093589;28;20031;-74
2022/02/07 06:07:35;;;;;;;6.47;1.40;;;12.30;77.60;;;;;;5095732;28;20024;-76
2022/02/07 06:10:01;;;;;;;5.80;1.13;;;12.20;77.00;;;;;;5097127;28;20126;-75
2022/02/07 06:12:26;;;;;;;8.00;1.23;;;12.20;76.90;;;;;;5096077;28;20024;-75
2022/02/07 06:14:53;;;;;;;8.40;1.40;;;12.10;77.10;;;;;;5095746;28;20057;-75
2022/02/07 06:17:18;;;;;;;5.75;1.20;;;12.10;77.40;;;;;;5094278;28;20031;-76
2022/02/07 06:19:44;;;;;;;8.35;1.45;;;12.10;77.80;;;;;;5093148;28;20028;-76
2022/02/07 06:22:10;;;;;;;7.72;1.38;;;12.00;78.00;;;;;;5098031;28;20023;-75
2022/02/07 06:24:35;;;;;;;8.40;1.90;;;12.00;78.10;;;;;;5095668;28;20062;-75
2022/02/07 06:27:01;;;;;;;5.78;1.30;;;12.00;78.10;;;;;;5077708;28;20107;-75
2022/02/07 06:29:27;;;;;;;7.50;1.50;;;12.00;77.80;;;;;;5077155;28;20035;-74
2022/02/07 06:31:52;;;;;;;6.78;1.55;;;11.90;77.80;;;;;;5091447;28;20103;-73
2022/02/07 06:34:18;;;;;;;5.43;1.35;;;11.90;77.60;;;;;;5097686;28;20020;-73
2022/02/07 06:36:43;;;;;;;6.82;1.50;;;11.90;78.10;;;;;;5095760;28;20074;-73
2022/02/07 06:39:09;;;;;;;7.22;1.90;;;11.90;78.40;;;;;;5095177;28;20439;-73
2022/02/07 06:41:35;;;;;;;5.13;1.30;;;11.80;78.30;;;;;;5095599;28;20376;-73
2022/02/07 06:44:02;;;;;;;8.57;2.13;;;11.70;78.40;;;;;;5091424;28;20066;-73
2022/02/07 06:46:28;;;;;;;6.05;1.33;;;11.70;78.60;;;;;;5096397;28;20051;-75
2022/02/07 06:48:53;;;;;;;6.47;1.58;;;11.80;78.70;;;;;;5095377;28;20044;-74
2022/02/07 06:51:19;;;;;;;5.55;1.48;;;11.70;78.50;;;;;;5095419;28;20115;-74
2022/02/07 06:53:45;;;;;;;6.63;1.58;;;11.70;78.70;;;;;;5095310;28;20036;-74
2022/02/07 06:56:10;;;;;;;5.22;1.42;;;11.60;78.70;;;;;;5092687;28;20024;-74
2022/02/07 06:58:36;;;;;;;7.93;1.35;;;11.50;78.30;;;;;;5094541;28;20028;-74
2022/02/07 07:01:04;;;;;;;7.60;1.60;;;11.40;78.30;;;;;;5096067;28;20028;-74
2022/02/07 07:03:33;;;;;;;6.60;1.48;;;11.40;78.70;;;;;;5095033;28;20110;-74
2022/02/07 07:05:59;;;;;;;5.53;1.48;;;11.30;78.80;;;;;;5095263;28;20388;-74
2022/02/07 07:08:24;;;;;;;7.32;1.45;;;11.40;79.00;;;;;;5094275;28;20023;-74
2022/02/07 07:10:53;;;;;;;6.68;1.52;;;11.40;79.00;;;;;;5091502;28;20024;-74
2022/02/07 07:13:25;;;;;;;5.18;1.33;;;11.40;79.10;;;;;;5097015;28;20067;-74
2022/02/07 07:15:59;;;;;;;5.90;1.33;;;11.50;79.10;;;;;;5094581;28;20119;-74
2022/02/07 07:18:25;;;;;;;6.38;1.58;;;11.50;78.60;;;;;;5094760;28;20054;-73
2022/02/07 07:20:50;;;;;;;4.55;1.10;;;11.50;78.60;;;;;;5094960;28;20074;-73
2022/02/07 07:23:16;;;;;;;7.50;1.40;;;11.40;78.50;;;;;;5074788;28;20503;-73
2022/02/07 07:25:44;;;;;;;5.38;1.45;;;11.30;78.60;;;;;;5092556;28;20369;-73
2022/02/07 07:28:13;;;;;;;3.80;1.30;;;11.30;78.80;;;;;;5095086;28;20103;-73
2022/02/07 07:30:44;;;;;;;6.60;1.65;;;11.30;79.10;;;;;;5094738;28;20031;-73
2022/02/07 07:33:15;;;;;;;6.95;1.70;;;11.40;79.20;;;;;;5094901;28;20418;-74
2022/02/07 07:35:41;;;;;;;6.40;1.83;;;11.40;78.90;;;;;;5094671;28;20026;-75
2022/02/07 07:38:06;;;;;;;7.00;1.40;;;11.40;78.70;;;;;;5091599;28;20024;-74
2022/02/07 07:40:32;;;;;;;4.30;1.10;;;11.30;78.70;;;;;;5095010;28;20028;-73
2022/02/07 07:42:57;;;;;;;6.78;1.60;;;11.30;79.00;;;;;;5095460;28;20086;-73
2022/02/07 07:45:29;;;;;;;5.25;1.40;;;11.30;80.20;;;;;;5094230;28;20028;-74
2022/02/07 07:48:00;;;;;;;4.32;1.20;;;11.30;79.10;;;;;;5094391;28;20062;-74
2022/02/07 07:50:33;;;;;;;4.55;1.30;;;11.30;79.50;;;;;;5093276;28;20046;-73
2022/02/07 07:53:13;;;;;;;4.15;1.13;;;11.40;79.90;;;;;;5074396;28;20370;-73
2022/02/07 08:03:39;;;;;;;6.28;1.67;;;11.80;79.70;;;;;;5098307;28;20454;-74
2022/02/07 08:08:43;;;;;;;6.60;2.10;;;12.10;79.60;;;;;;5098326;28;20657;-74
2022/02/07 08:11:12;;;;;;;6.28;2.08;;;12.30;79.30;;;;;;5095388;28;20039;-74
2022/02/07 08:13:40;;;;;;;5.40;1.77;;;12.40;77.90;;;;;;5096498;28;20043;-74
2022/02/07 08:16:06;;;;;;;8.50;2.25;;;12.50;78.00;;;;;;5099780;28;20059;-74
2022/02/07 08:18:32;;;;;;;5.25;1.77;;;12.40;77.40;;;;;;5096793;28;20055;-74
2022/02/07 08:20:58;;;;;;;7.43;1.70;;;12.30;77.50;;;;;;5098022;28;20381;-75
2022/02/07 08:23:24;;;;;;;5.97;1.45;;;12.20;77.70;;;;;;5097149;28;20062;-74
2022/02/07 08:25:52;;;;;;;7.63;2.00;;;12.20;78.70;;;;;;5093825;28;20038;-75
2022/02/07 08:28:17;;;;;;;6.32;1.50;;;12.20;78.50;;;;;;5096475;28;20016;-74
2022/02/07 08:30:43;;;;;;;7.82;1.77;;;12.60;80.10;;;;;;5092430;28;20038;-74
2022/02/07 08:33:08;;;;;;;4.82;1.70;;;13.10;79.80;;;;;;5092570;28;20482;-73
2022/02/07 08:35:34;;;;;;;3.47;1.55;;;13.60;79.90;;;;;;5091845;28;20040;-72
2022/02/07 08:38:00;;;;;;;4.35;1.67;;;14.00;78.80;;;;;;5086470;28;20028;-72
2022/02/07 08:40:26;;;;;;;5.20;1.58;;;14.30;76.70;;;;;;5090247;28;20036;-71
2022/02/07 08:42:54;;;;;;;8.88;2.25;;;14.30;76.30;;;;;;5088605;28;20031;-71
2022/02/07 08:45:20;;;;;;;4.70;2.05;;;14.40;76.50;;;;;;5090241;28;20032;-71
2022/02/07 08:47:46;;;;;;;8.05;1.88;;;14.50;76.00;;;;;;5087632;28;20024;-71
2022/02/07 08:50:12;;;;;;;10.13;2.10;;;14.80;77.00;;;;;;5097309;28;20032;-72
2022/02/07 08:52:42;;;;;;;8.05;2.47;;;15.00;76.10;;;;;;5092659;28;20030;-72
2022/02/07 08:55:11;;;;;;;5.22;2.10;;;15.30;75.50;;;;;;5090118;28;20107;-73
2022/02/07 08:57:42;;;;;;;7.30;1.95;;;15.60;73.80;;;;;;5091697;28;20380;-73
2022/02/07 09:00:17;;;;;;;7.47;2.03;;;15.90;72.20;;;;;;5090714;28;20051;-73
2022/02/07 09:07:50;;;;;;;9.55;2.00;;;16.70;70.40;;;;;;5092028;28;20028;-72
2022/02/07 09:10:16;;;;;;;7.15;1.98;;;16.90;71.60;;;;;;5107377;28;20039;-72
2022/02/07 09:12:44;;;;;;;5.45;1.75;;;17.10;70.00;;;;;;5091691;28;20170;-72
2022/02/07 09:15:32;;;;;;;7.03;1.80;;;17.30;70.00;;;;;;5089865;28;20123;-71
2022/02/07 09:18:04;;;;;;;6.47;1.65;;;17.50;71.00;;;;;;5093301;28;20116;-72
2022/02/07 09:20:31;;;;;;;7.95;1.73;;;17.90;69.90;;;;;;5092110;28;20115;-72
2022/02/07 09:22:57;;;;;;;6.20;1.75;;;18.00;69.30;;;;;;5089741;28;20526;-72
2022/02/07 09:25:23;;;;;;;6.07;1.60;;;18.40;67.10;;;;;;5076995;28;20058;-74
2022/02/07 09:27:49;;;;;;;5.05;1.42;;;18.50;64.80;;;;;;5082669;28;20091;-73
2022/02/07 09:30:14;;;;;;;5.68;1.50;;;18.70;67.20;;;;;;5092437;28;20024;-73
2022/02/07 09:32:40;;;;;;;5.88;1.52;;;18.60;66.50;;;;;;5086632;28;20024;-72
2022/02/07 09:35:06;;;;;;;5.93;1.70;;;18.60;64.10;;;;;;5091730;28;20040;-67
2022/02/07 09:37:31;;;;;;;4.95;1.40;;;18.00;63.20;;;;;;5099446;28;20020;-72
2022/02/07 09:39:57;;;;;;;5.43;1.55;;;17.30;63.40;;;;;;5082077;28;20024;-72
2022/02/07 09:42:25;;;;;;;8.75;1.80;;;16.80;65.10;;;;;;5085734;28;20412;-69
2022/02/07 09:44:54;;;;;;;6.63;1.73;;;16.40;66.00;;;;;;5086843;28;20020;-69
2022/02/07 09:47:20;;;;;;;4.85;1.38;;;16.00;65.80;;;;;;5075626;28;20032;-71
2022/02/07 09:49:46;;;;;;;10.05;2.03;;;15.80;67.50;;;;;;5087158;28;20535;-68
2022/02/07 09:52:13;;;;;;;6.03;1.48;;;15.60;67.40;;;;;;5092108;28;20528;-66
2022/02/07 09:54:39;;;;;;;5.93;1.75;;;15.50;68.20;;;;;;5091893;28;20047;-68
2022/02/07 09:57:07;;;;;;;8.50;1.50;;;15.50;69.10;;;;;;5084461;28;20017;-67
2022/02/07 09:59:34;;;;;;;7.30;1.60;;;15.70;70.40;;;;;;5080081;28;20020;-67
2022/02/07 10:02:06;;;;;;;9.73;1.83;;;15.90;68.90;;;;;;5074443;28;20056;-68
2022/02/07 10:04:39;;;;;;;5.68;1.52;;;16.00;68.80;;;;;;5089651;28;20102;-68
2022/02/07 10:09:53;;;;;;;7.55;1.90;;;15.90;68.40;;;;;;5088918;28;20031;-68
2022/02/07 10:18:20;;;;;;;6.60;1.75;;;17.00;68.60;;;;;;5087411;28;20400;-68
2022/02/07 10:39:49;;;;;;;9.15;1.70;;;17.70;66.30;;;;;;4996230;28;20117;-68
2022/02/07 10:44:46;;;;;;;7.50;1.60;;;18.30;64.30;;;;;;5000007;28;20026;-70
2022/02/07 10:50:05;;;;;;;8.70;1.70;;;18.80;60.90;;;;;;5002640;28;20030;-66
2022/02/07 10:52:48;;;;;;;6.28;1.63;;;18.90;63.10;;;;;;5005079;28;20576;-66
2022/02/07 10:55:22;;;;;;;7.40;1.20;;;18.40;59.50;;;;;;5006379;28;20430;-66
2022/02/07 10:57:49;;;;;;;4.95;1.20;;;18.00;61.20;;;;;;5005745;28;20049;-67
2022/02/07 11:00:17;;;;;;;4.65;1.40;;;18.20;62.60;;;;;;5006517;28;20105;-66
2022/02/07 11:02:53;;;;;;;5.75;1.70;;;18.60;62.00;;;;;;5007559;28;20437;-69
2022/02/07 11:05:20;;;;;;;5.88;1.52;;;18.40;61.30;;;;;;5048634;28;22095;-69
2022/02/07 11:07:52;;;;;;;4.93;1.10;;;18.20;60.60;;;;;;5068871;28;20028;-69
2022/02/07 11:15:49;;;;;;;5.85;1.38;;;19.40;61.20;;;;;;5007476;28;20052;-68
2022/02/07 11:18:29;;;;;;;10.82;1.60;;;19.40;60.70;;;;;;5008369;28;20034;-68
2022/02/07 11:21:23;;;;;;;4.22;1.30;;;19.30;58.60;;;;;;5006229;28;20081;-68
2022/02/07 11:24:26;;;;;;;5.40;1.25;;;19.20;62.20;;;;;;4996086;28;20025;-68
2022/02/07 11:26:52;;;;;;;4.05;1.15;;;19.30;59.80;;;;;;5003033;28;20045;-69
2022/02/07 11:29:49;;;;;;;6.82;1.38;;;18.90;58.80;;;;;;5007226;28;20038;-68
2022/02/07 11:32:55;;;;;;;4.28;1.05;;;18.50;59.00;;;;;;5005434;28;20030;-67
2022/02/07 11:35:24;;;;;;;5.25;1.17;;;18.20;60.20;;;;;;4947900;28;20092;-67
2022/02/07 11:38:01;;;;;;;5.43;1.20;;;18.00;59.10;;;;;;4951569;28;20027;-67
2022/02/07 11:40:40;;;;;;;4.45;1.05;;;17.60;58.00;;;;;;4965597;28;20059;-70
2022/02/07 11:43:20;;;;;;;3.53;1.10;;;17.20;59.60;;;;;;4954831;28;20144;-70
2022/02/07 11:45:57;;;;;;;5.03;1.25;;;17.00;60.00;;;;;;4954410;28;20097;-70
2022/02/07 11:48:25;;;;;;;4.90;1.10;;;16.70;60.20;;;;;;4962266;28;20031;-70
2022/02/07 11:50:59;;;;;;;5.10;1.15;;;16.40;60.10;;;;;;4956290;28;20031;-69
2022/02/07 11:53:54;;;;;;;2.95;1.13;;;16.30;60.60;;;;;;5006864;28;20038;-70
2022/02/07 11:56:26;;;;;;;4.75;1.38;;;16.30;62.00;;;;;;4949602;29;20046;-69
2022/02/07 11:58:58;;;;;;;3.55;1.02;;;16.20;61.30;;;;;;4934978;29;20105;-69
2022/02/07 12:01:46;;;;;;;6.35;1.33;;;16.20;61.90;;;;;;4921199;29;20054;-70
2022/02/07 12:04:11;;;;;;;4.25;1.08;;;16.30;62.90;;;;;;4951038;28;20103;-68
2022/02/07 12:06:37;;;;;;;4.28;0.90;;;16.50;62.50;;;;;;4954858;28;20480;-68
2022/02/07 12:09:17;;;;;;;6.78;1.10;;;16.40;61.20;;;;;;4967822;28;20031;-69
2022/02/07 12:11:44;;;;;;;3.70;1.10;;;16.40;60.90;;;;;;4954494;28;20027;-69
2022/02/07 12:14:30;;;;;;;4.35;1.10;;;16.20;61.00;;;;;;4964761;28;20476;-69
2022/02/07 12:16:56;;;;;;;4.18;1.00;;;16.10;61.30;;;;;;4953469;28;20057;-69
2022/02/07 12:19:34;;;;;;;6.55;1.10;;;16.00;60.90;;;;;;4965565;28;20086;-70
2022/02/07 12:22:14;;;;;;;6.32;1.08;;;15.80;61.50;;;;;;4970093;28;20475;-70
2022/02/07 12:24:57;;;;;;;5.30;1.02;;;15.70;61.60;;;;;;4959683;28;20504;-70
2022/02/07 12:27:26;;;;;;;3.40;0.95;;;15.60;61.20;;;;;;4961224;28;20066;-71
2022/02/07 12:32:36;;;;;;;6.65;1.33;;;15.50;61.30;;;;;;5000500;28;20036;-70
2022/02/07 12:35:04;;;;;;;4.15;0.93;;;15.50;61.30;;;;;;5091423;28;20184;-70
2022/02/07 12:37:34;;;;;;;4.05;0.80;;;15.40;61.80;;;;;;5054606;28;20039;-71
2022/02/07 12:40:04;;;;;;;3.00;0.90;;;15.40;61.40;;;;;;5094380;28;20030;-70
2022/02/07 12:42:30;;;;;;;3.90;1.00;;;15.40;61.20;;;;;;5082011;28;20052;-70
2022/02/07 12:45:00;;;;;;;6.05;1.10;;;15.30;60.90;;;;;;5084852;28;20028;-70
2022/02/07 12:47:26;;;;;;;4.00;1.02;;;15.20;61.60;;;;;;5087456;28;20028;-70
2022/02/07 12:49:55;;;;;;;4.00;1.40;;;15.20;61.20;;;;;;5076114;28;20046;-70
2022/02/07 12:52:33;;;;;;;6.20;1.13;;;15.30;61.70;;;;;;5089951;28;20146;-70
2022/02/07 12:54:59;;;;;;;2.65;0.60;;;15.20;61.90;;;;;;5089943;28;20438;-70
2022/02/07 12:57:26;;;;;;;5.60;0.95;;;15.30;62.10;;;;;;5088773;28;20054;-68
2022/02/07 12:59:53;;;;;;;4.45;1.02;;;15.30;62.20;;;;;;5087791;28;20024;-67
2022/02/07 13:02:29;;;;;;;5.78;1.20;;;15.30;62.10;;;;;;5078597;28;20036;-67
2022/02/07 13:04:55;;;;;;;6.75;1.13;;;15.20;61.80;;;;;;5073891;28;20016;-67
2022/02/07 13:07:25;;;;;;;4.97;1.13;;;15.20;61.90;;;;;;5086162;28;20025;-67
2022/02/07 13:09:54;;;;;;;6.30;1.27;;;15.20;62.20;;;;;;5077935;28;20099;-68
2022/02/07 13:14:56;;;;;;;5.18;1.25;;;15.30;62.90;;;;;;5087538;28;20039;-67
2022/02/07 13:17:25;;;;;;;5.47;1.23;;;15.30;62.20;;;;;;5089109;28;20476;-69
2022/02/07 13:19:53;;;;;;;5.85;1.20;;;15.30;62.20;;;;;;5089616;28;20024;-69
2022/02/07 13:22:21;;;;;;;5.90;1.10;;;15.20;62.10;;;;;;5077834;28;20036;-70
2022/02/07 13:24:49;;;;;;;5.65;1.20;;;15.20;62.40;;;;;;5085560;28;20545;-68
2022/02/07 13:27:17;;;;;;;3.58;1.33;;;15.20;62.50;;;;;;5067616;28;20031;-68
2022/02/07 13:29:46;;;;;;;6.07;1.20;;;15.30;64.10;;;;;;5078197;28;20064;-68
2022/02/07 13:32:24;;;;;;;6.57;1.40;;;15.40;62.30;;;;;;5089308;28;20149;-68
2022/02/07 13:35:11;;;;;;;4.90;1.13;;;15.40;62.10;;;;;;5087110;28;20024;-67
2022/02/07 13:37:40;;;;;;;7.47;1.55;;;15.50;62.60;;;;;;5089065;28;20020;-67
2022/02/07 13:40:09;;;;;;;7.05;1.60;;;15.50;61.80;;;;;;5081304;28;20077;-67
2022/02/07 13:42:38;;;;;;;5.57;1.50;;;15.60;62.30;;;;;;5086861;28;20035;-68
2022/02/07 13:45:12;;;;;;;4.80;1.25;;;15.70;62.40;;;;;;5085297;28;20028;-67
2022/02/07 13:47:44;;;;;;;4.45;1.27;;;15.80;61.30;;;;;;5092570;28;20024;-69
2022/02/07 13:50:15;;;;;;;7.75;1.70;;;15.70;61.60;;;;;;5074914;28;20142;-67
2022/02/07 13:52:43;;;;;;;3.38;1.30;;;15.70;61.70;;;;;;5074894;28;20024;-67
2022/02/07 13:55:11;;;;;;;5.13;1.60;;;15.80;61.90;;;;;;5092316;28;20508;-68
2022/02/07 13:57:55;;;;;;;6.82;1.50;;;15.80;61.60;;;;;;5088670;28;20103;-66
2022/02/07 14:00:28;;;;;;;6.75;1.67;;;15.80;62.00;;;;;;5064828;28;20090;-64
2022/02/07 14:03:32;;;;;;;6.38;1.65;;;15.80;61.50;;;;;;5079183;28;20036;-64
2022/02/07 14:06:22;;;;;;;8.93;1.80;;;15.90;62.40;;;;;;5029493;28;20502;-64
2022/02/07 14:08:54;;;;;;;6.03;1.38;;;15.90;62.00;;;;;;5028936;28;20564;-64
2022/02/07 14:11:24;;;;;;;7.93;1.70;;;16.00;61.90;;;;;;5028229;28;20029;-65
2022/02/07 14:13:52;;;;;;;3.78;1.23;;;16.00;61.10;;;;;;5020972;28;20060;-64
2022/02/07 14:16:21;;;;;;;6.45;1.42;;;16.00;60.30;;;;;;5029360;28;20053;-64
2022/02/07 14:18:47;;;;;;;4.80;1.40;;;15.90;61.20;;;;;;5025500;28;20466;-64
2022/02/07 14:21:15;;;;;;;4.40;1.50;;;16.00;61.40;;;;;;5021647;28;20545;-65
2022/02/07 14:23:54;;;;;;;9.20;1.58;;;15.90;61.30;;;;;;5022130;28;20061;-64
2022/02/07 14:26:21;;;;;;;4.90;1.55;;;16.00;61.30;;;;;;5028845;28;20087;-65
2022/02/07 14:28:51;;;;;;;8.02;1.77;;;15.90;60.90;;;;;;5028811;28;20528;-65
2022/02/07 14:31:17;;;;;;;8.27;1.80;;;16.00;61.60;;;;;;5029319;28;20021;-64
2022/02/07 14:33:43;;;;;;;3.38;1.25;;;16.10;61.80;;;;;;5018206;28;20042;-64
2022/02/07 14:36:09;;;;;;;6.28;1.20;;;16.10;61.50;;;;;;5009740;28;20088;-64
2022/02/07 14:38:36;;;;;;;4.63;1.50;;;16.20;60.80;;;;;;5028315;28;20099;-64
2022/02/07 14:41:05;;;;;;;5.15;1.35;;;16.10;60.20;;;;;;5077207;28;20048;-65
2022/02/07 14:43:33;;;;;;;5.20;1.40;;;16.00;60.80;;;;;;5094100;28;20028;-65
2022/02/07 14:48:33;;;;;;;4.55;1.20;;;15.90;60.50;;;;;;5088870;28;20028;-65
2022/02/07 14:50:59;;;;;;;5.30;1.25;;;15.90;60.90;;;;;;5084611;28;20085;-65
2022/02/07 14:53:25;;;;;;;4.07;1.10;;;15.90;61.10;;;;;;5068399;28;20038;-64
2022/02/07 14:55:51;;;;;;;6.20;1.38;;;15.90;61.10;;;;;;5088667;28;20028;-65
2022/02/07 14:58:18;;;;;;;5.18;0.98;;;15.90;60.70;;;;;;5087091;28;20020;-65
2022/02/07 15:00:43;;;;;;;4.80;1.30;;;15.90;60.20;;;;;;5081485;28;20032;-65
2022/02/07 15:03:15;;;;;;;5.35;1.20;;;15.90;61.20;;;;;;5088513;28;20035;-68
2022/02/07 15:05:41;;;;;;;6.45;1.67;;;15.90;61.10;;;;;;5087144;28;20039;-67
2022/02/07 15:08:07;;;;;;;4.43;1.08;;;15.90;60.80;;;;;;5072483;28;20028;-67
2022/02/07 15:10:35;;;;;;;4.78;1.33;;;15.90;60.90;;;;;;5089648;28;20043;-67
2022/02/07 15:13:01;;;;;;;6.10;1.17;;;16.00;61.20;;;;;;5085463;28;20518;-67
2022/02/07 15:15:27;;;;;;;4.90;1.33;;;16.00;60.70;;;;;;5085035;28;20055;-67
2022/02/07 15:17:55;;;;;;;4.95;1.15;;;15.90;60.90;;;;;;5085918;28;20384;-68
2022/02/07 15:20:21;;;;;;;5.18;1.30;;;15.90;60.70;;;;;;5104554;28;20031;-68
2022/02/07 15:22:49;;;;;;;3.70;1.23;;;15.80;60.50;;;;;;5097468;28;20056;-67
2022/02/07 15:25:19;;;;;;;4.22;1.15;;;15.70;60.70;;;;;;5092840;28;20092;-67